Engelhard, North Carolina
Current Conditions -  °F | °C
As of 6:56 PM on Friday 24 Oct 2014 (Local Time) from K2DP Reporting Station
Clear Clear  
Wind Chill: 57°   Ceiling: Unl
Heat Index: 57°   Visibility: 10mi
Dew Point: 50°   Wind: 5mph
Humidity: 78%   Direction: 290°WNW
Pressure: 29.95"   Gusts: NA
Location:  35.51°N, 76°W
Report Text: K2DP 242256Z AUTO 29004KT 10SM CLR 14/10 A2995 RMK AO2 SLPNO T01400102
Loading
Personal Weather Stations






























Interactive Weather Map
Tropical Storm Tracking
New forecast layout! Learn more

10-Day Weather Forecast

Advertisements
Track Severe Weather on mobile